createdAt,value
2017-09-20T00:02:00.561Z,101428.73
2017-09-20T00:07:02.623Z,101422.67
2017-09-20T00:12:04.692Z,101420.91
2017-09-20T00:17:14.414Z,101421.41
2017-09-20T00:22:16.453Z,101425.16
2017-09-20T00:27:18.471Z,101413.02
2017-09-20T00:32:20.519Z,101417.27
2017-09-20T00:37:22.563Z,101419.67
2017-09-20T00:42:24.627Z,101417.52
2017-09-20T00:47:26.652Z,101413.77
2017-09-20T00:52:28.653Z,101421.66
2017-09-20T00:57:31.611Z,101417.48
2017-09-20T01:02:33.662Z,101416.91
2017-09-20T01:07:35.675Z,101407.12
2017-09-20T01:12:37.672Z,101401.16
2017-09-20T01:17:40.437Z,101395.54
2017-09-20T01:23:01.190Z,101400.95
2017-09-20T01:28:03.245Z,101397.84
2017-09-20T01:33:05.377Z,101397.52
2017-09-20T01:38:07.465Z,101399.78
2017-09-20T01:43:09.542Z,101403.50
2017-09-20T01:48:11.545Z,101409.90
2017-09-20T01:53:13.513Z,101415.34
2017-09-20T01:58:15.517Z,101417.17
2017-09-20T02:03:17.501Z,101409.38
2017-09-20T02:08:19.481Z,101407.55
2017-09-20T02:13:22.420Z,101404.61
2017-09-20T02:18:24.519Z,101394.50
2017-09-20T02:23:26.455Z,101397.66
2017-09-20T02:28:28.488Z,101388.75
2017-09-20T02:33:30.444Z,101393.15
2017-09-20T02:38:33.487Z,101402.18
2017-09-20T02:43:35.507Z,101420.55
2017-09-20T02:48:37.536Z,101422.59
2017-09-20T02:53:39.550Z,101430.73
2017-09-20T02:58:42.355Z,101426.85
2017-09-20T03:03:44.342Z,101431.16
2017-09-20T03:08:46.299Z,101433.55
2017-09-20T03:13:50.974Z,101430.15
2017-09-20T03:18:53.440Z,101423.48
2017-09-20T03:23:58.884Z,101420.70
2017-09-20T03:29:01.068Z,101414.55
2017-09-20T03:34:03.101Z,101415.48
2017-09-20T03:39:06.016Z,101415.34
2017-09-20T03:44:08.030Z,101418.47
2017-09-20T03:49:12.112Z,101426.78
2017-09-20T03:54:24.600Z,101425.23
2017-09-20T03:59:31.848Z,101417.99
2017-09-20T04:04:39.288Z,101413.28
2017-09-20T04:09:46.137Z,101417.17
2017-09-20T04:14:51.875Z,101412.16
2017-09-20T04:19:57.262Z,101415.87
2017-09-20T04:24:59.572Z,101418.81
2017-09-20T04:30:05.131Z,101415.74
2017-09-20T04:35:09.653Z,101421.77
2017-09-20T04:40:13.574Z,101425.91
2017-09-20T04:45:19.506Z,101438.33
2017-09-20T04:50:25.722Z,101452.06
2017-09-20T04:55:27.721Z,101447.09
2017-09-20T05:00:34.484Z,101456.77
2017-09-20T05:05:42.369Z,101449.69
2017-09-20T05:10:47.908Z,101452.06
2017-09-20T05:15:52.922Z,101454.33
2017-09-20T05:20:57.291Z,101462.47
2017-09-20T05:26:04.328Z,101467.40
2017-09-20T05:31:09.751Z,101469.47
2017-09-20T05:36:14.732Z,101472.34
2017-09-20T05:41:19.642Z,101477.57
2017-09-20T05:46:26.197Z,101469.41
2017-09-20T05:51:33.301Z,101480.13
2017-09-20T05:56:40.610Z,101474.94
2017-09-20T06:01:49.151Z,101477.20
2017-09-20T06:06:56.263Z,101478.56
2017-09-20T06:12:03.900Z,101488.16
2017-09-20T06:17:16.544Z,101490.80
2017-09-20T06:22:23.109Z,101489.85
2017-09-20T06:27:27.498Z,101496.80
2017-09-20T06:32:31.443Z,101492.05
2017-09-20T06:37:35.828Z,101501.30
2017-09-20T07:21:21.372Z,101493.56
2017-09-20T07:26:26.015Z,101497.59
2017-09-20T07:31:32.848Z,101496.48
2017-09-20T07:36:38.333Z,101499.90
2017-09-20T07:41:46.738Z,101510.17
2017-09-20T07:46:52.116Z,101512.29
2017-09-20T07:51:57.754Z,101523.00
2017-09-20T07:57:05.767Z,101522.36
2017-09-20T08:02:15.075Z,101519.19
2017-09-20T08:07:21.850Z,101525.02
2017-09-20T08:12:28.814Z,101529.74
2017-09-20T08:17:33.591Z,101528.97
2017-09-20T08:22:41.107Z,101525.11
2017-09-20T08:27:46.029Z,101519.48
2017-09-20T08:32:52.398Z,101508.67
2017-09-20T08:37:57.929Z,101508.45
2017-09-20T08:43:03.879Z,101514.47
2017-09-20T08:53:21.713Z,101521.63
2017-09-20T08:58:29.656Z,101523.48
2017-09-20T09:03:35.869Z,101528.36
2017-09-20T09:08:40.582Z,101527.80
2017-09-20T09:13:46.019Z,101527.91
2017-09-20T09:18:51.978Z,101531.45
2017-09-20T09:23:59.354Z,101532.30
2017-09-20T09:29:06.387Z,101533.38
2017-09-20T09:34:11.795Z,101526.81
2017-09-20T09:39:16.027Z,101537.56
2017-09-20T09:44:20.918Z,101533.18
2017-09-20T09:49:25.857Z,101533.28
2017-09-20T09:54:29.438Z,101536.92
2017-09-20T09:59:34.388Z,101530.53
2017-09-20T10:04:39.451Z,101530.33
2017-09-20T10:09:42.784Z,101525.84
2017-09-20T10:14:47.721Z,101527.33
2017-09-20T10:19:54.077Z,101529.35
2017-09-20T10:24:58.726Z,101534.69
2017-09-20T10:30:05.662Z,101528.36
2017-09-20T10:35:11.727Z,101530.09
2017-09-20T10:40:17.610Z,101525.74
2017-09-20T10:45:22.689Z,101518.16
2017-09-20T10:50:29.821Z,101517.24
2017-09-20T10:55:39.306Z,101520.11
2017-09-20T11:00:46.075Z,101521.42
2017-09-20T11:05:52.302Z,101525.27
2017-09-20T11:10:58.404Z,101533.73
2017-09-20T11:16:03.497Z,101530.12
2017-09-20T11:21:08.827Z,101517.24
2017-09-20T11:26:16.569Z,101525.64
2017-09-20T11:31:23.451Z,101517.80
2017-09-20T11:36:28.581Z,101515.51
2017-09-20T11:41:34.743Z,101519.73
2017-09-20T11:46:41.777Z,101515.56
2017-09-20T11:51:48.536Z,101512.14
2017-09-20T11:56:56.201Z,101511.30
2017-09-20T12:02:02.254Z,101521.28
2017-09-20T12:07:10.734Z,101513.23
2017-09-20T12:12:17.725Z,101514.97
2017-09-20T12:17:27.900Z,101510.02
2017-09-20T12:22:37.042Z,101513.96
2017-09-20T12:27:44.354Z,101513.16
2017-09-20T12:32:49.176Z,101515.67
2017-09-20T12:37:54.822Z,101512.41
2017-09-20T12:42:59.780Z,101513.64
2017-09-20T12:48:02.617Z,101511.37
2017-09-20T12:53:07.200Z,101511.02
2017-09-20T12:58:09.446Z,101493.91
2017-09-20T13:03:14.772Z,101499.67
2017-09-20T13:08:22.933Z,101500.70
2017-09-20T13:13:36.088Z,101508.61
2017-09-20T13:18:41.188Z,101506.16
2017-09-20T13:23:46.368Z,101504.89
2017-09-20T13:28:58.598Z,101501.40
2017-09-20T13:34:10.249Z,101510.67
2017-09-20T13:39:24.953Z,101500.56
2017-09-20T13:44:30.837Z,101510.09
2017-09-20T13:49:42.517Z,101499.67
2017-09-20T13:54:46.505Z,101510.02
2017-09-20T13:59:53.511Z,101504.23
2017-09-20T14:04:58.941Z,101503.27
2017-09-20T14:10:06.348Z,101493.87
2017-09-20T14:15:16.962Z,101498.98
2017-09-20T14:20:22.756Z,101497.80
2017-09-20T14:25:32.498Z,101502.03
2017-09-20T14:30:39.970Z,101490.13
2017-09-20T14:35:46.493Z,101493.00
2017-09-20T14:40:54.425Z,101488.02
2017-09-20T14:46:00.330Z,101487.96
2017-09-20T14:51:06.939Z,101496.55
2017-09-20T14:56:10.811Z,101505.27
2017-09-20T15:01:16.059Z,101508.84
2017-09-20T15:06:18.839Z,101509.48
2017-09-20T15:11:21.619Z,101506.58
2017-09-20T15:16:23.639Z,101512.98
2017-09-20T15:21:27.357Z,101513.94
2017-09-20T15:26:29.572Z,101513.53
2017-09-20T15:31:31.674Z,101508.69
2017-09-20T15:36:33.627Z,101514.77
2017-09-20T15:41:35.595Z,101520.24
2017-09-20T15:46:37.519Z,101517.19
2017-09-20T15:51:40.266Z,101511.35
2017-09-20T15:56:42.889Z,101508.67
2017-09-20T16:01:51.505Z,101513.55
2017-09-20T16:06:54.688Z,101512.17
2017-09-20T16:11:59.215Z,101513.55
2017-09-20T16:17:04.363Z,101517.84
2017-09-20T16:22:06.994Z,101518.27
2017-09-20T16:27:09.842Z,101522.48
2017-09-20T16:32:13.630Z,101521.29
2017-09-20T16:37:17.471Z,101522.88
2017-09-20T16:42:19.470Z,101526.52
2017-09-20T16:47:25.345Z,101526.62
2017-09-20T16:52:28.985Z,101523.64
2017-09-20T16:57:34.347Z,101533.08
2017-09-20T17:02:40.889Z,101531.36
2017-09-20T17:07:46.095Z,101534.45
2017-09-20T17:12:53.562Z,101538.97
2017-09-20T17:17:58.015Z,101537.46
2017-09-20T17:23:03.376Z,101542.14
2017-09-20T17:28:11.257Z,101548.41
2017-09-20T17:33:14.823Z,101556.70
2017-09-20T17:38:16.992Z,101561.84
2017-09-20T17:43:23.101Z,101532.86
2017-09-20T17:48:29.168Z,101567.05
2017-09-20T17:53:37.008Z,101566.02
2017-09-20T17:58:40.292Z,101572.95
2017-09-20T18:03:42.943Z,101588.69
2017-09-20T18:08:46.865Z,101601.48
2017-09-20T18:13:52.142Z,101593.91
2017-09-20T18:18:54.239Z,101605.09
2017-09-20T18:23:56.216Z,101613.23
2017-09-20T18:29:00.979Z,101611.89
2017-09-20T18:34:05.531Z,101617.02
2017-09-20T18:39:08.785Z,101612.23
2017-09-20T18:44:11.793Z,101608.34
2017-09-20T18:49:19.200Z,101607.08
2017-09-20T18:54:21.459Z,101603.05
2017-09-20T18:59:23.396Z,101605.33
2017-09-20T19:04:31.605Z,101603.42
2017-09-20T19:09:38.214Z,101612.14
2017-09-20T19:14:40.551Z,101615.98
2017-09-20T19:19:48.591Z,101613.16
2017-09-20T19:24:56.691Z,101622.41
2017-09-20T19:29:59.377Z,101620.23
2017-09-20T19:35:03.100Z,101619.86
2017-09-20T19:40:06.281Z,101617.40
2017-09-20T19:45:08.274Z,101609.37
2017-09-20T19:50:12.255Z,101604.43
2017-09-20T19:55:17.683Z,101601.05
2017-09-20T20:00:21.998Z,101617.02
2017-09-20T20:05:25.930Z,101609.37
2017-09-20T20:10:29.180Z,101620.86
2017-09-20T20:15:34.459Z,101619.21
2017-09-20T20:20:38.977Z,101616.19
2017-09-20T20:25:42.051Z,101615.48
2017-09-20T20:30:48.688Z,101615.38
2017-09-20T20:35:55.019Z,101612.47
2017-09-20T20:41:00.179Z,101614.60
2017-09-20T20:46:05.595Z,101616.48
2017-09-20T20:51:10.952Z,101623.35
2017-09-20T20:56:18.023Z,101625.02
2017-09-20T21:01:23.747Z,101623.89
2017-09-20T21:06:28.942Z,101619.05
2017-09-20T21:11:32.987Z,101621.69
2017-09-20T21:16:38.950Z,101621.89
2017-09-20T21:21:45.049Z,101625.88
2017-09-20T21:26:51.333Z,101625.77
2017-09-20T21:31:55.367Z,101620.82
2017-09-20T21:37:02.875Z,101618.45
2017-09-20T21:42:07.785Z,101612.30
2017-09-20T21:47:12.075Z,101618.72
2017-09-20T21:52:18.236Z,101624.56
2017-09-20T21:57:24.187Z,101617.92
2017-09-20T22:02:26.477Z,101623.54
2017-09-20T22:07:28.925Z,101617.86
2017-09-20T22:12:32.613Z,101619.23
2017-09-20T22:17:53.418Z,101624.78
2017-09-20T22:23:15.255Z,101626.42
2017-09-20T22:28:19.193Z,101627.91
2017-09-20T22:33:21.243Z,101630.92
2017-09-20T22:38:24.374Z,101624.17
2017-09-20T22:43:26.679Z,101624.85
2017-09-20T22:48:30.022Z,101627.27
2017-09-20T22:53:32.105Z,101625.58
2017-09-20T22:58:34.890Z,101625.27
2017-09-20T23:03:37.180Z,101628.65
2017-09-20T23:08:39.171Z,101638.41
2017-09-20T23:13:42.476Z,101641.48
2017-09-20T23:18:44.697Z,101643.63
2017-09-20T23:23:46.964Z,101647.34
2017-09-20T23:28:50.278Z,101639.78
2017-09-20T23:33:52.828Z,101640.17
2017-09-20T23:38:55.588Z,101648.44
2017-09-20T23:43:57.535Z,101645.88
2017-09-20T23:49:00.118Z,101645.53
2017-09-20T23:54:02.062Z,101639.95
2017-09-20T23:59:04.031Z,101635.62
